sensor_id;sensor_type;location;lat;lon;timestamp;temperature;humidity
22813;DHT22;11573;51.334;3.244;2024-03-06T00:01:08;7.20;99.90
22813;DHT22;11573;51.334;3.244;2024-03-06T00:03:35;7.20;99.90
22813;DHT22;11573;51.334;3.244;2024-03-06T00:06:02;7.30;99.90
22813;DHT22;11573;51.334;3.244;2024-03-06T00:08:30;7.20;99.90
22813;DHT22;11573;51.334;3.244;2024-03-06T00:10:57;7.30;99.90
22813;DHT22;11573;51.334;3.244;2024-03-06T00:13:24;7.30;99.90
22813;DHT22;11573;51.334;3.244;2024-03-06T00:15:51;7.40;99.90
22813;DHT22;11573;51.334;3.244;2024-03-06T00:18:18;7.40;99.90
22813;DHT22;11573;51.334;3.244;2024-03-06T00:20:45;7.30;99.90
22813;DHT22;11573;51.334;3.244;2024-03-06T00:23:12;7.20;99.90
22813;DHT22;11573;51.334;3.244;2024-03-06T00:25:39;7.20;99.90
22813;DHT22;11573;51.334;3.244;2024-03-06T00:28:06;7.20;99.90
22813;DHT22;11573;51.334;3.244;2024-03-06T00:30:33;7.10;99.90
22813;DHT22;11573;51.334;3.244;2024-03-06T00:33:00;7.00;99.90
22813;DHT22;11573;51.334;3.244;2024-03-06T00:35:28;7.00;99.90
22813;DHT22;11573;51.334;3.244;2024-03-06T00:37:55;6.80;99.90
22813;DHT22;11573;51.334;3.244;2024-03-06T00:40:22;6.80;99.90
22813;DHT22;11573;51.334;3.244;2024-03-06T00:42:50;6.70;99.90
22813;DHT22;11573;51.334;3.244;2024-03-06T00:45:18;6.70;99.90
22813;DHT22;11573;51.334;3.244;2024-03-06T00:47:46;6.60;99.90
22813;DHT22;11573;51.334;3.244;2024-03-06T00:50:13;6.60;99.90
22813;DHT22;11573;51.334;3.244;2024-03-06T00:52:46;6.70;99.90
22813;DHT22;11573;51.334;3.244;2024-03-06T00:55:13;6.70;99.90
22813;DHT22;11573;51.334;3.244;2024-03-06T00:57:40;6.70;99.90
22813;DHT22;11573;51.334;3.244;2024-03-06T01:00:08;6.70;99.90
22813;DHT22;11573;51.334;3.244;2024-03-06T01:02:38;6.80;99.90
22813;DHT22;11573;51.334;3.244;2024-03-06T01:05:08;6.80;99.90
22813;DHT22;11573;51.334;3.244;2024-03-06T01:07:40;6.80;99.90
22813;DHT22;11573;51.334;3.244;2024-03-06T01:10:08;6.80;99.90
22813;DHT22;11573;51.334;3.244;2024-03-06T01:12:36;6.80;99.90
22813;DHT22;11573;51.334;3.244;2024-03-06T01:15:04;6.70;99.90
22813;DHT22;11573;51.334;3.244;2024-03-06T01:17:31;6.70;99.90
22813;DHT22;11573;51.334;3.244;2024-03-06T01:19:58;6.80;99.90
22813;DHT22;11573;51.334;3.244;2024-03-06T01:22:27;6.70;99.90
22813;DHT22;11573;51.334;3.244;2024-03-06T01:24:53;6.70;99.90
22813;DHT22;11573;51.334;3.244;2024-03-06T01:27:20;6.60;99.90
22813;DHT22;11573;51.334;3.244;2024-03-06T01:29:48;6.70;99.90
22813;DHT22;11573;51.334;3.244;2024-03-06T01:32:15;6.80;99.90
22813;DHT22;11573;51.334;3.244;2024-03-06T01:34:42;6.70;99.90
22813;DHT22;11573;51.334;3.244;2024-03-06T01:37:09;6.70;99.90
22813;DHT22;11573;51.334;3.244;2024-03-06T01:39:36;6.70;99.90
22813;DHT22;11573;51.334;3.244;2024-03-06T01:42:03;6.70;99.90
22813;DHT22;11573;51.334;3.244;2024-03-06T01:44:30;6.70;99.90
22813;DHT22;11573;51.334;3.244;2024-03-06T01:46:58;6.70;99.90
22813;DHT22;11573;51.334;3.244;2024-03-06T01:49:26;6.60;99.90
22813;DHT22;11573;51.334;3.244;2024-03-06T01:52:09;6.50;99.90
22813;DHT22;11573;51.334;3.244;2024-03-06T01:54:39;6.30;99.90
22813;DHT22;11573;51.334;3.244;2024-03-06T01:57:06;6.30;99.90
22813;DHT22;11573;51.334;3.244;2024-03-06T01:59:34;6.20;99.90
22813;DHT22;11573;51.334;3.244;2024-03-06T02:02:05;6.10;99.90
22813;DHT22;11573;51.334;3.244;2024-03-06T02:04:36;6.00;99.90
22813;DHT22;11573;51.334;3.244;2024-03-06T02:07:09;5.90;99.90
22813;DHT22;11573;51.334;3.244;2024-03-06T02:09:46;5.80;99.90
22813;DHT22;11573;51.334;3.244;2024-03-06T02:12:13;5.70;99.90
22813;DHT22;11573;51.334;3.244;2024-03-06T02:14:40;5.80;99.90
22813;DHT22;11573;51.334;3.244;2024-03-06T02:17:07;5.60;99.90
22813;DHT22;11573;51.334;3.244;2024-03-06T02:19:43;5.50;99.90
22813;DHT22;11573;51.334;3.244;2024-03-06T02:22:12;5.40;99.90
22813;DHT22;11573;51.334;3.244;2024-03-06T02:24:44;5.40;99.90
22813;DHT22;11573;51.334;3.244;2024-03-06T02:27:12;5.40;99.90
22813;DHT22;11573;51.334;3.244;2024-03-06T02:29:39;5.50;99.90
22813;DHT22;11573;51.334;3.244;2024-03-06T02:32:07;5.60;99.90
22813;DHT22;11573;51.334;3.244;2024-03-06T02:34:35;5.60;99.90
22813;DHT22;11573;51.334;3.244;2024-03-06T02:37:02;5.60;99.90
22813;DHT22;11573;51.334;3.244;2024-03-06T02:39:29;5.60;99.90
22813;DHT22;11573;51.334;3.244;2024-03-06T02:41:56;5.60;99.90
22813;DHT22;11573;51.334;3.244;2024-03-06T02:44:23;5.60;99.90
22813;DHT22;11573;51.334;3.244;2024-03-06T02:46:51;5.70;99.90
22813;DHT22;11573;51.334;3.244;2024-03-06T02:49:18;5.70;99.90
22813;DHT22;11573;51.334;3.244;2024-03-06T02:51:45;5.70;99.90
22813;DHT22;11573;51.334;3.244;2024-03-06T02:54:13;5.80;99.90
22813;DHT22;11573;51.334;3.244;2024-03-06T02:56:41;5.80;99.90
22813;DHT22;11573;51.334;3.244;2024-03-06T02:59:09;5.90;99.90
22813;DHT22;11573;51.334;3.244;2024-03-06T03:01:38;5.90;99.90
22813;DHT22;11573;51.334;3.244;2024-03-06T03:04:05;5.90;99.90
22813;DHT22;11573;51.334;3.244;2024-03-06T03:06:35;5.90;99.90
22813;DHT22;11573;51.334;3.244;2024-03-06T03:09:03;5.90;99.90
22813;DHT22;11573;51.334;3.244;2024-03-06T03:11:30;5.90;99.90
22813;DHT22;11573;51.334;3.244;2024-03-06T03:13:58;6.00;99.90
22813;DHT22;11573;51.334;3.244;2024-03-06T03:16:26;6.00;99.90
22813;DHT22;11573;51.334;3.244;2024-03-06T03:18:53;6.00;99.90
22813;DHT22;11573;51.334;3.244;2024-03-06T03:21:21;6.00;99.90
22813;DHT22;11573;51.334;3.244;2024-03-06T03:23:48;5.90;99.90
22813;DHT22;11573;51.334;3.244;2024-03-06T03:26:19;6.00;99.90
22813;DHT22;11573;51.334;3.244;2024-03-06T03:28:53;6.00;99.90
22813;DHT22;11573;51.334;3.244;2024-03-06T03:31:22;6.00;99.90
22813;DHT22;11573;51.334;3.244;2024-03-06T03:33:49;6.00;99.90
22813;DHT22;11573;51.334;3.244;2024-03-06T03:36:16;6.00;99.90
22813;DHT22;11573;51.334;3.244;2024-03-06T03:38:43;6.00;99.90
22813;DHT22;11573;51.334;3.244;2024-03-06T03:41:11;6.00;99.90
22813;DHT22;11573;51.334;3.244;2024-03-06T03:43:43;6.00;99.90
22813;DHT22;11573;51.334;3.244;2024-03-06T03:46:10;6.00;99.90
22813;DHT22;11573;51.334;3.244;2024-03-06T03:48:37;6.10;99.90
22813;DHT22;11573;51.334;3.244;2024-03-06T03:51:05;6.10;99.90
22813;DHT22;11573;51.334;3.244;2024-03-06T03:53:34;6.10;99.90
22813;DHT22;11573;51.334;3.244;2024-03-06T03:56:03;6.10;99.90
22813;DHT22;11573;51.334;3.244;2024-03-06T03:58:31;6.10;99.90
22813;DHT22;11573;51.334;3.244;2024-03-06T04:00:59;6.00;99.90
22813;DHT22;11573;51.334;3.244;2024-03-06T04:03:26;6.10;99.90
22813;DHT22;11573;51.334;3.244;2024-03-06T04:05:53;6.10;99.90
22813;DHT22;11573;51.334;3.244;2024-03-06T04:08:20;6.10;99.90
22813;DHT22;11573;51.334;3.244;2024-03-06T04:10:46;6.10;99.90
22813;DHT22;11573;51.334;3.244;2024-03-06T04:13:15;6.10;99.90
22813;DHT22;11573;51.334;3.244;2024-03-06T04:15:43;6.00;99.90
22813;DHT22;11573;51.334;3.244;2024-03-06T04:18:10;5.90;99.90
22813;DHT22;11573;51.334;3.244;2024-03-06T04:20:37;5.90;99.90
22813;DHT22;11573;51.334;3.244;2024-03-06T04:23:05;5.70;99.90
22813;DHT22;11573;51.334;3.244;2024-03-06T04:25:32;5.50;99.90
22813;DHT22;11573;51.334;3.244;2024-03-06T04:27:59;5.40;99.90
22813;DHT22;11573;51.334;3.244;2024-03-06T04:30:26;5.40;99.90
22813;DHT22;11573;51.334;3.244;2024-03-06T04:32:53;5.40;99.90
22813;DHT22;11573;51.334;3.244;2024-03-06T04:35:20;5.50;99.90
22813;DHT22;11573;51.334;3.244;2024-03-06T04:37:47;5.50;99.90
22813;DHT22;11573;51.334;3.244;2024-03-06T04:40:20;5.60;99.90
22813;DHT22;11573;51.334;3.244;2024-03-06T04:42:49;5.50;99.90
22813;DHT22;11573;51.334;3.244;2024-03-06T04:45:17;5.60;99.90
22813;DHT22;11573;51.334;3.244;2024-03-06T04:47:44;5.60;99.90
22813;DHT22;11573;51.334;3.244;2024-03-06T04:50:12;5.60;99.90
22813;DHT22;11573;51.334;3.244;2024-03-06T04:52:42;5.70;99.90
22813;DHT22;11573;51.334;3.244;2024-03-06T04:55:10;5.70;99.90
22813;DHT22;11573;51.334;3.244;2024-03-06T04:57:39;5.70;99.90
22813;DHT22;11573;51.334;3.244;2024-03-06T05:00:09;5.70;99.90
22813;DHT22;11573;51.334;3.244;2024-03-06T05:02:37;5.70;99.90
22813;DHT22;11573;51.334;3.244;2024-03-06T05:05:21;5.70;99.90
22813;DHT22;11573;51.334;3.244;2024-03-06T05:08:07;5.80;99.90
22813;DHT22;11573;51.334;3.244;2024-03-06T05:10:51;5.90;99.90
22813;DHT22;11573;51.334;3.244;2024-03-06T05:13:35;5.80;99.90
22813;DHT22;11573;51.334;3.244;2024-03-06T05:16:20;5.80;99.90
22813;DHT22;11573;51.334;3.244;2024-03-06T05:19:10;5.80;99.90
22813;DHT22;11573;51.334;3.244;2024-03-06T05:21:55;5.80;99.90
22813;DHT22;11573;51.334;3.244;2024-03-06T05:24:40;5.80;99.90
22813;DHT22;11573;51.334;3.244;2024-03-06T05:27:25;5.80;99.90
22813;DHT22;11573;51.334;3.244;2024-03-06T05:30:10;5.90;99.90
22813;DHT22;11573;51.334;3.244;2024-03-06T05:32:56;5.80;99.90
22813;DHT22;11573;51.334;3.244;2024-03-06T05:35:40;5.90;99.90
22813;DHT22;11573;51.334;3.244;2024-03-06T05:38:25;5.70;99.90
22813;DHT22;11573;51.334;3.244;2024-03-06T05:41:09;5.60;99.90
22813;DHT22;11573;51.334;3.244;2024-03-06T05:43:53;5.70;99.90
22813;DHT22;11573;51.334;3.244;2024-03-06T05:46:40;5.60;99.90
22813;DHT22;11573;51.334;3.244;2024-03-06T05:49:24;5.60;99.90
22813;DHT22;11573;51.334;3.244;2024-03-06T05:52:09;5.60;99.90
22813;DHT22;11573;51.334;3.244;2024-03-06T05:54:55;5.70;99.90
22813;DHT22;11573;51.334;3.244;2024-03-06T05:57:39;5.70;99.90
22813;DHT22;11573;51.334;3.244;2024-03-06T06:00:32;5.70;99.90
22813;DHT22;11573;51.334;3.244;2024-03-06T06:03:00;5.70;99.90
22813;DHT22;11573;51.334;3.244;2024-03-06T06:05:27;5.70;99.90
22813;DHT22;11573;51.334;3.244;2024-03-06T06:07:55;5.80;99.90
22813;DHT22;11573;51.334;3.244;2024-03-06T06:10:22;5.90;99.90
22813;DHT22;11573;51.334;3.244;2024-03-06T06:12:49;5.90;99.90
22813;DHT22;11573;51.334;3.244;2024-03-06T06:15:16;5.80;99.90
22813;DHT22;11573;51.334;3.244;2024-03-06T06:17:43;5.90;99.90
22813;DHT22;11573;51.334;3.244;2024-03-06T06:20:15;5.90;99.90
22813;DHT22;11573;51.334;3.244;2024-03-06T06:22:45;6.00;99.90
22813;DHT22;11573;51.334;3.244;2024-03-06T06:25:13;6.00;99.90
22813;DHT22;11573;51.334;3.244;2024-03-06T06:27:40;6.00;99.90
22813;DHT22;11573;51.334;3.244;2024-03-06T06:30:07;6.00;99.90
22813;DHT22;11573;51.334;3.244;2024-03-06T06:32:40;6.00;99.90
22813;DHT22;11573;51.334;3.244;2024-03-06T06:35:09;6.00;99.90
22813;DHT22;11573;51.334;3.244;2024-03-06T06:37:38;6.10;99.90
22813;DHT22;11573;51.334;3.244;2024-03-06T06:40:08;6.00;99.90
22813;DHT22;11573;51.334;3.244;2024-03-06T06:42:35;6.00;99.90
22813;DHT22;11573;51.334;3.244;2024-03-06T06:45:04;6.00;99.90
22813;DHT22;11573;51.334;3.244;2024-03-06T06:47:34;6.00;99.90
22813;DHT22;11573;51.334;3.244;2024-03-06T06:50:06;6.00;99.90
22813;DHT22;11573;51.334;3.244;2024-03-06T06:52:36;6.00;99.90
22813;DHT22;11573;51.334;3.244;2024-03-06T06:55:05;6.10;99.90
22813;DHT22;11573;51.334;3.244;2024-03-06T06:57:33;6.20;99.90
22813;DHT22;11573;51.334;3.244;2024-03-06T07:00:01;6.10;99.90
22813;DHT22;11573;51.334;3.244;2024-03-06T07:02:39;6.30;99.90
22813;DHT22;11573;51.334;3.244;2024-03-06T07:05:07;6.30;99.90
22813;DHT22;11573;51.334;3.244;2024-03-06T07:07:36;6.20;99.90
22813;DHT22;11573;51.334;3.244;2024-03-06T07:10:05;6.40;99.90
22813;DHT22;11573;51.334;3.244;2024-03-06T07:12:33;6.40;99.90
22813;DHT22;11573;51.334;3.244;2024-03-06T07:15:00;6.50;99.90
22813;DHT22;11573;51.334;3.244;2024-03-06T07:17:27;6.40;99.90
22813;DHT22;11573;51.334;3.244;2024-03-06T07:19:54;6.40;99.90
22813;DHT22;11573;51.334;3.244;2024-03-06T07:22:23;6.40;99.90
22813;DHT22;11573;51.334;3.244;2024-03-06T07:24:50;6.40;99.90
22813;DHT22;11573;51.334;3.244;2024-03-06T07:27:17;6.40;99.90
22813;DHT22;11573;51.334;3.244;2024-03-06T07:29:46;6.30;99.90
22813;DHT22;11573;51.334;3.244;2024-03-06T07:32:13;6.30;99.90
22813;DHT22;11573;51.334;3.244;2024-03-06T07:34:40;6.40;99.90
22813;DHT22;11573;51.334;3.244;2024-03-06T07:37:07;6.30;99.90
22813;DHT22;11573;51.334;3.244;2024-03-06T07:39:34;6.20;99.90
22813;DHT22;11573;51.334;3.244;2024-03-06T07:42:02;6.40;99.90
22813;DHT22;11573;51.334;3.244;2024-03-06T07:44:29;6.50;99.90
22813;DHT22;11573;51.334;3.244;2024-03-06T07:46:56;6.50;99.90
22813;DHT22;11573;51.334;3.244;2024-03-06T07:49:23;6.50;99.90
22813;DHT22;11573;51.334;3.244;2024-03-06T07:51:50;6.50;99.90
22813;DHT22;11573;51.334;3.244;2024-03-06T07:54:17;6.60;99.90
22813;DHT22;11573;51.334;3.244;2024-03-06T07:56:45;6.70;99.90
22813;DHT22;11573;51.334;3.244;2024-03-06T07:59:13;6.90;99.90
22813;DHT22;11573;51.334;3.244;2024-03-06T08:01:42;7.10;99.90
22813;DHT22;11573;51.334;3.244;2024-03-06T08:04:09;7.00;99.90
22813;DHT22;11573;51.334;3.244;2024-03-06T08:06:37;7.10;99.90
22813;DHT22;11573;51.334;3.244;2024-03-06T08:09:06;7.20;99.90
22813;DHT22;11573;51.334;3.244;2024-03-06T08:11:34;7.30;99.90
22813;DHT22;11573;51.334;3.244;2024-03-06T08:14:02;7.30;99.90
22813;DHT22;11573;51.334;3.244;2024-03-06T08:16:29;7.40;99.90
22813;DHT22;11573;51.334;3.244;2024-03-06T08:19:00;7.50;99.90
22813;DHT22;11573;51.334;3.244;2024-03-06T08:21:28;7.70;99.90
22813;DHT22;11573;51.334;3.244;2024-03-06T08:23:55;7.70;99.90
22813;DHT22;11573;51.334;3.244;2024-03-06T08:26:22;7.70;99.90
22813;DHT22;11573;51.334;3.244;2024-03-06T08:28:50;7.70;99.90
22813;DHT22;11573;51.334;3.244;2024-03-06T08:31:18;7.50;99.90
22813;DHT22;11573;51.334;3.244;2024-03-06T08:33:45;7.70;99.90
22813;DHT22;11573;51.334;3.244;2024-03-06T08:36:13;7.90;99.90
22813;DHT22;11573;51.334;3.244;2024-03-06T08:38:40;7.90;99.90
22813;DHT22;11573;51.334;3.244;2024-03-06T08:41:07;8.00;99.90
22813;DHT22;11573;51.334;3.244;2024-03-06T08:43:34;8.20;99.90
22813;DHT22;11573;51.334;3.244;2024-03-06T08:46:01;8.20;99.90
22813;DHT22;11573;51.334;3.244;2024-03-06T08:48:29;8.10;99.90
22813;DHT22;11573;51.334;3.244;2024-03-06T08:50:58;8.40;99.90
22813;DHT22;11573;51.334;3.244;2024-03-06T08:53:27;8.40;99.90
22813;DHT22;11573;51.334;3.244;2024-03-06T08:55:55;8.40;99.90
22813;DHT22;11573;51.334;3.244;2024-03-06T08:58:24;8.40;99.90
22813;DHT22;11573;51.334;3.244;2024-03-06T09:00:51;8.40;99.90
22813;DHT22;11573;51.334;3.244;2024-03-06T09:03:19;8.50;99.90
22813;DHT22;11573;51.334;3.244;2024-03-06T09:05:46;8.40;99.90
22813;DHT22;11573;51.334;3.244;2024-03-06T09:08:13;8.40;99.90
22813;DHT22;11573;51.334;3.244;2024-03-06T09:10:41;8.40;99.90
22813;DHT22;11573;51.334;3.244;2024-03-06T09:13:09;8.30;99.90
22813;DHT22;11573;51.334;3.244;2024-03-06T09:15:38;8.30;99.90
22813;DHT22;11573;51.334;3.244;2024-03-06T09:18:07;8.20;99.90
22813;DHT22;11573;51.334;3.244;2024-03-06T09:20:40;8.20;99.90
22813;DHT22;11573;51.334;3.244;2024-03-06T09:23:07;8.20;99.90
22813;DHT22;11573;51.334;3.244;2024-03-06T09:25:35;8.30;99.90
22813;DHT22;11573;51.334;3.244;2024-03-06T09:28:02;8.70;99.90
22813;DHT22;11573;51.334;3.244;2024-03-06T09:30:32;8.70;99.90
22813;DHT22;11573;51.334;3.244;2024-03-06T09:32:59;8.90;99.90
22813;DHT22;11573;51.334;3.244;2024-03-06T09:35:26;8.90;99.90
22813;DHT22;11573;51.334;3.244;2024-03-06T09:37:53;9.10;99.90
22813;DHT22;11573;51.334;3.244;2024-03-06T09:40:22;9.10;99.90
22813;DHT22;11573;51.334;3.244;2024-03-06T09:42:50;9.20;99.90
22813;DHT22;11573;51.334;3.244;2024-03-06T09:45:18;9.30;99.90
22813;DHT22;11573;51.334;3.244;2024-03-06T09:47:47;9.30;99.90
22813;DHT22;11573;51.334;3.244;2024-03-06T09:50:18;9.30;99.90
22813;DHT22;11573;51.334;3.244;2024-03-06T09:52:51;9.50;99.90
22813;DHT22;11573;51.334;3.244;2024-03-06T09:55:21;9.20;99.90
22813;DHT22;11573;51.334;3.244;2024-03-06T09:57:49;9.30;99.90
22813;DHT22;11573;51.334;3.244;2024-03-06T10:00:17;9.50;99.90
22813;DHT22;11573;51.334;3.244;2024-03-06T10:02:59;9.30;99.90
22813;DHT22;11573;51.334;3.244;2024-03-06T10:05:27;9.30;99.90
22813;DHT22;11573;51.334;3.244;2024-03-06T10:07:55;9.00;99.90
22813;DHT22;11573;51.334;3.244;2024-03-06T10:10:22;8.90;99.90
22813;DHT22;11573;51.334;3.244;2024-03-06T10:12:50;9.00;99.90
22813;DHT22;11573;51.334;3.244;2024-03-06T10:15:18;9.00;99.90
22813;DHT22;11573;51.334;3.244;2024-03-06T10:17:45;8.90;99.90
22813;DHT22;11573;51.334;3.244;2024-03-06T10:20:22;8.70;99.90
22813;DHT22;11573;51.334;3.244;2024-03-06T10:22:51;8.70;99.90
22813;DHT22;11573;51.334;3.244;2024-03-06T10:25:25;8.70;99.90
22813;DHT22;11573;51.334;3.244;2024-03-06T10:28:10;8.80;99.90
22813;DHT22;11573;51.334;3.244;2024-03-06T10:30:40;8.80;99.90
22813;DHT22;11573;51.334;3.244;2024-03-06T10:33:13;8.90;99.90
22813;DHT22;11573;51.334;3.244;2024-03-06T10:35:42;9.00;99.90
22813;DHT22;11573;51.334;3.244;2024-03-06T10:38:12;9.10;99.90
22813;DHT22;11573;51.334;3.244;2024-03-06T10:40:43;9.30;99.90
22813;DHT22;11573;51.334;3.244;2024-03-06T10:43:11;9.20;99.90
22813;DHT22;11573;51.334;3.244;2024-03-06T10:48:16;9.20;99.90
22813;DHT22;11573;51.334;3.244;2024-03-06T10:50:46;9.50;99.90
22813;DHT22;11573;51.334;3.244;2024-03-06T10:53:15;9.50;99.90
22813;DHT22;11573;51.334;3.244;2024-03-06T10:55:49;9.80;99.90
22813;DHT22;11573;51.334;3.244;2024-03-06T10:58:18;9.70;99.90
22813;DHT22;11573;51.334;3.244;2024-03-06T11:00:47;9.80;99.90
22813;DHT22;11573;51.334;3.244;2024-03-06T11:03:15;9.90;99.90
22813;DHT22;11573;51.334;3.244;2024-03-06T11:05:43;10.10;99.90
22813;DHT22;11573;51.334;3.244;2024-03-06T11:08:13;10.50;99.90
22813;DHT22;11573;51.334;3.244;2024-03-06T11:10:42;10.50;99.90
22813;DHT22;11573;51.334;3.244;2024-03-06T11:13:23;10.80;99.90
22813;DHT22;11573;51.334;3.244;2024-03-06T11:15:56;11.00;99.90
22813;DHT22;11573;51.334;3.244;2024-03-06T11:23:30;11.20;99.90
22813;DHT22;11573;51.334;3.244;2024-03-06T11:26:05;11.40;99.90
22813;DHT22;11573;51.334;3.244;2024-03-06T11:28:36;11.60;99.90
22813;DHT22;11573;51.334;3.244;2024-03-06T11:31:09;11.80;99.90
22813;DHT22;11573;51.334;3.244;2024-03-06T11:33:41;12.20;99.90
22813;DHT22;11573;51.334;3.244;2024-03-06T11:38:57;11.90;99.90
22813;DHT22;11573;51.334;3.244;2024-03-06T11:44:16;11.80;99.90
22813;DHT22;11573;51.334;3.244;2024-03-06T11:46:48;12.00;99.90
22813;DHT22;11573;51.334;3.244;2024-03-06T11:49:26;12.20;99.90
22813;DHT22;11573;51.334;3.244;2024-03-06T11:51:57;12.10;99.90
22813;DHT22;11573;51.334;3.244;2024-03-06T11:54:25;12.10;99.90
22813;DHT22;11573;51.334;3.244;2024-03-06T11:56:59;12.10;99.90
22813;DHT22;11573;51.334;3.244;2024-03-06T11:59:32;11.80;99.90
22813;DHT22;11573;51.334;3.244;2024-03-06T12:02:04;11.30;99.90
22813;DHT22;11573;51.334;3.244;2024-03-06T12:04:32;11.40;99.90
22813;DHT22;11573;51.334;3.244;2024-03-06T12:07:08;11.40;99.90
22813;DHT22;11573;51.334;3.244;2024-03-06T12:09:39;11.20;99.90
22813;DHT22;11573;51.334;3.244;2024-03-06T12:12:10;11.00;99.90
22813;DHT22;11573;51.334;3.244;2024-03-06T12:14:39;10.80;99.90
22813;DHT22;11573;51.334;3.244;2024-03-06T12:17:12;10.60;99.90
22813;DHT22;11573;51.334;3.244;2024-03-06T12:19:44;10.10;99.90
22813;DHT22;11573;51.334;3.244;2024-03-06T12:22:12;10.10;99.90
22813;DHT22;11573;51.334;3.244;2024-03-06T12:24:41;10.40;99.90
22813;DHT22;11573;51.334;3.244;2024-03-06T12:27:08;10.30;99.90
22813;DHT22;11573;51.334;3.244;2024-03-06T12:29:36;10.10;99.90
22813;DHT22;11573;51.334;3.244;2024-03-06T12:32:15;10.00;99.90
22813;DHT22;11573;51.334;3.244;2024-03-06T12:34:42;9.80;99.90
22813;DHT22;11573;51.334;3.244;2024-03-06T12:37:10;9.70;99.90
22813;DHT22;11573;51.334;3.244;2024-03-06T12:39:40;9.60;99.90
22813;DHT22;11573;51.334;3.244;2024-03-06T12:42:09;9.60;99.90
22813;DHT22;11573;51.334;3.244;2024-03-06T12:44:38;9.40;99.90
22813;DHT22;11573;51.334;3.244;2024-03-06T12:47:06;9.40;99.90
22813;DHT22;11573;51.334;3.244;2024-03-06T12:49:33;9.30;99.90
22813;DHT22;11573;51.334;3.244;2024-03-06T12:52:01;9.20;99.90
22813;DHT22;11573;51.334;3.244;2024-03-06T12:54:31;9.20;99.90
22813;DHT22;11573;51.334;3.244;2024-03-06T12:56:58;9.30;99.90
22813;DHT22;11573;51.334;3.244;2024-03-06T12:59:25;9.30;99.90
22813;DHT22;11573;51.334;3.244;2024-03-06T13:01:52;9.30;99.90
22813;DHT22;11573;51.334;3.244;2024-03-06T13:04:21;9.40;99.90
22813;DHT22;11573;51.334;3.244;2024-03-06T13:06:48;9.50;99.90
22813;DHT22;11573;51.334;3.244;2024-03-06T13:09:15;9.70;99.90
22813;DHT22;11573;51.334;3.244;2024-03-06T13:11:42;9.70;99.90
22813;DHT22;11573;51.334;3.244;2024-03-06T13:14:10;9.80;99.90
22813;DHT22;11573;51.334;3.244;2024-03-06T13:16:39;9.80;99.90
22813;DHT22;11573;51.334;3.244;2024-03-06T13:19:07;9.80;99.90
22813;DHT22;11573;51.334;3.244;2024-03-06T13:21:35;9.90;99.90
22813;DHT22;11573;51.334;3.244;2024-03-06T13:24:02;9.80;99.90
22813;DHT22;11573;51.334;3.244;2024-03-06T13:26:30;9.80;99.90
22813;DHT22;11573;51.334;3.244;2024-03-06T13:28:57;9.70;99.90
22813;DHT22;11573;51.334;3.244;2024-03-06T13:31:24;9.50;99.90
22813;DHT22;11573;51.334;3.244;2024-03-06T13:33:51;9.50;99.90
22813;DHT22;11573;51.334;3.244;2024-03-06T13:36:18;9.60;99.90
22813;DHT22;11573;51.334;3.244;2024-03-06T13:38:45;9.80;99.90
22813;DHT22;11573;51.334;3.244;2024-03-06T13:41:12;9.90;99.90
22813;DHT22;11573;51.334;3.244;2024-03-06T13:43:40;9.90;99.90
22813;DHT22;11573;51.334;3.244;2024-03-06T13:46:06;10.00;99.90
22813;DHT22;11573;51.334;3.244;2024-03-06T13:48:34;9.90;99.90
22813;DHT22;11573;51.334;3.244;2024-03-06T13:51:01;9.80;99.90
22813;DHT22;11573;51.334;3.244;2024-03-06T13:53:28;9.80;99.90
22813;DHT22;11573;51.334;3.244;2024-03-06T13:55:55;9.80;99.90
22813;DHT22;11573;51.334;3.244;2024-03-06T13:58:22;9.80;99.90
22813;DHT22;11573;51.334;3.244;2024-03-06T14:00:49;9.80;99.90
22813;DHT22;11573;51.334;3.244;2024-03-06T14:03:17;9.70;99.90
22813;DHT22;11573;51.334;3.244;2024-03-06T14:05:44;9.70;99.90
22813;DHT22;11573;51.334;3.244;2024-03-06T14:08:12;9.70;99.90
22813;DHT22;11573;51.334;3.244;2024-03-06T14:10:39;9.70;99.90
22813;DHT22;11573;51.334;3.244;2024-03-06T14:13:07;9.80;99.90
22813;DHT22;11573;51.334;3.244;2024-03-06T14:15:35;9.80;99.90
22813;DHT22;11573;51.334;3.244;2024-03-06T14:18:05;9.90;99.90
22813;DHT22;11573;51.334;3.244;2024-03-06T14:20:33;9.90;99.90
22813;DHT22;11573;51.334;3.244;2024-03-06T14:23:00;9.90;99.90
22813;DHT22;11573;51.334;3.244;2024-03-06T14:25:27;9.70;99.90
22813;DHT22;11573;51.334;3.244;2024-03-06T14:27:54;9.60;99.90
22813;DHT22;11573;51.334;3.244;2024-03-06T14:30:21;9.50;99.90
22813;DHT22;11573;51.334;3.244;2024-03-06T14:32:49;9.40;99.90
22813;DHT22;11573;51.334;3.244;2024-03-06T14:35:16;9.40;99.90
22813;DHT22;11573;51.334;3.244;2024-03-06T14:37:43;9.50;99.90
22813;DHT22;11573;51.334;3.244;2024-03-06T14:40:10;9.50;99.90
22813;DHT22;11573;51.334;3.244;2024-03-06T14:42:37;9.50;99.90
22813;DHT22;11573;51.334;3.244;2024-03-06T14:45:04;9.50;99.90
22813;DHT22;11573;51.334;3.244;2024-03-06T14:47:32;9.40;99.90
22813;DHT22;11573;51.334;3.244;2024-03-06T14:50:00;9.40;99.90
22813;DHT22;11573;51.334;3.244;2024-03-06T14:52:27;9.30;99.90
22813;DHT22;11573;51.334;3.244;2024-03-06T14:54:54;9.10;99.90
22813;DHT22;11573;51.334;3.244;2024-03-06T14:57:21;9.10;99.90
22813;DHT22;11573;51.334;3.244;2024-03-06T14:59:50;9.00;99.90
22813;DHT22;11573;51.334;3.244;2024-03-06T15:02:19;9.10;99.90
22813;DHT22;11573;51.334;3.244;2024-03-06T15:04:46;9.20;99.90
22813;DHT22;11573;51.334;3.244;2024-03-06T15:07:13;9.30;99.90
22813;DHT22;11573;51.334;3.244;2024-03-06T15:09:40;9.30;99.90
22813;DHT22;11573;51.334;3.244;2024-03-06T15:12:07;9.70;99.90
22813;DHT22;11573;51.334;3.244;2024-03-06T15:14:34;9.90;99.90
22813;DHT22;11573;51.334;3.244;2024-03-06T15:17:11;10.10;99.90
22813;DHT22;11573;51.334;3.244;2024-03-06T15:19:39;10.30;99.90
22813;DHT22;11573;51.334;3.244;2024-03-06T15:22:07;10.30;99.90
22813;DHT22;11573;51.334;3.244;2024-03-06T15:24:34;10.20;99.90
22813;DHT22;11573;51.334;3.244;2024-03-06T15:27:01;10.30;99.90
22813;DHT22;11573;51.334;3.244;2024-03-06T15:29:29;10.30;99.90
22813;DHT22;11573;51.334;3.244;2024-03-06T15:31:56;10.20;99.90
22813;DHT22;11573;51.334;3.244;2024-03-06T15:34:23;10.10;99.90
22813;DHT22;11573;51.334;3.244;2024-03-06T15:36:50;10.10;99.90
22813;DHT22;11573;51.334;3.244;2024-03-06T15:39:21;10.00;99.90
22813;DHT22;11573;51.334;3.244;2024-03-06T15:41:48;10.00;99.90
22813;DHT22;11573;51.334;3.244;2024-03-06T15:44:15;10.00;99.90
22813;DHT22;11573;51.334;3.244;2024-03-06T15:46:42;10.00;99.90
22813;DHT22;11573;51.334;3.244;2024-03-06T15:49:25;10.00;99.90
22813;DHT22;11573;51.334;3.244;2024-03-06T15:51:52;10.00;99.90
22813;DHT22;11573;51.334;3.244;2024-03-06T15:54:21;10.10;99.90
22813;DHT22;11573;51.334;3.244;2024-03-06T15:56:48;10.20;99.90
22813;DHT22;11573;51.334;3.244;2024-03-06T15:59:15;10.20;99.90
22813;DHT22;11573;51.334;3.244;2024-03-06T16:01:42;10.20;99.90
22813;DHT22;11573;51.334;3.244;2024-03-06T16:04:11;10.20;99.90
22813;DHT22;11573;51.334;3.244;2024-03-06T16:06:38;10.30;99.90
22813;DHT22;11573;51.334;3.244;2024-03-06T16:09:08;10.20;99.90
22813;DHT22;11573;51.334;3.244;2024-03-06T16:11:41;10.20;99.90